TimeCST,TemperatureF,Dew PointF,Humidity,Sea Level PressureIn,VisibilityMPH,Wind Direction,Wind SpeedMPH,Gust SpeedMPH,PrecipitationIn,Events,Conditions,WindDirDegrees,DateUTC
12:53 AM,1.9,-7.1,66,30.51,10.0,West,8.1,-,N/A,,Clear,270,2013-02-01 06:53:00
1:53 AM,-0.0,-6.0,76,30.50,10.0,WNW,5.8,-,N/A,,Clear,290,2013-02-01 07:53:00
2:53 AM,-0.0,-6.0,76,30.48,10.0,Calm,Calm,-,N/A,,Mostly Cloudy,0,2013-02-01 08:53:00
3:53 AM,1.0,-5.1,75,30.47,10.0,Calm,Calm,-,N/A,,Overcast,0,2013-02-01 09:53:00
4:53 AM,-0.0,-5.1,79,30.47,10.0,Calm,Calm,-,N/A,,Clear,0,2013-02-01 10:53:00
5:53 AM,-0.9,-5.1,83,30.47,10.0,Calm,Calm,-,N/A,,Clear,0,2013-02-01 11:53:00
6:53 AM,1.0,-5.1,75,30.48,10.0,Calm,Calm,-,N/A,,Clear,0,2013-02-01 12:53:00
7:53 AM,-0.9,-5.1,83,30.48,10.0,SSE,4.6,-,N/A,,Clear,150,2013-02-01 13:53:00
8:53 AM,3.0,-2.9,76,30.46,10.0,SE,3.5,-,N/A,,Clear,130,2013-02-01 14:53:00
9:53 AM,8.1,-2.9,61,30.44,10.0,SSE,10.4,-,N/A,,Clear,160,2013-02-01 15:53:00
10:53 AM,12.9,1.0,59,30.41,10.0,South,11.5,-,N/A,,Clear,170,2013-02-01 16:53:00
11:53 AM,16.0,5.0,62,30.38,10.0,South,11.5,-,N/A,,Partly Cloudy,170,2013-02-01 17:53:00
12:53 PM,21.0,10.0,63,30.33,10.0,South,12.7,-,N/A,,Overcast,170,2013-02-01 18:53:00
1:53 PM,23.0,10.9,60,30.30,10.0,South,15.0,21.9,N/A,,Overcast,190,2013-02-01 19:53:00
2:53 PM,24.1,12.0,60,30.26,10.0,South,15.0,21.9,N/A,,Overcast,190,2013-02-01 20:53:00
3:53 PM,25.0,14.0,63,30.23,10.0,South,12.7,-,N/A,,Partly Cloudy,180,2013-02-01 21:53:00
4:53 PM,25.0,14.0,63,30.20,10.0,South,6.9,18.4,N/A,,Mostly Cloudy,180,2013-02-01 22:53:00
5:53 PM,25.0,14.0,63,30.19,10.0,South,5.8,-,N/A,,Clear,190,2013-02-01 23:53:00
6:53 PM,24.1,14.0,65,30.20,10.0,South,6.9,-,N/A,,Clear,190,2013-02-02 00:53:00
7:53 PM,24.1,14.0,65,30.18,10.0,South,8.1,-,N/A,,Clear,170,2013-02-02 01:53:00
8:53 PM,24.1,15.1,69,30.18,10.0,South,9.2,-,N/A,,Scattered Clouds,180,2013-02-02 02:53:00
9:53 PM,25.0,14.0,63,30.17,10.0,South,8.1,-,N/A,,Mostly Cloudy,190,2013-02-02 03:53:00
10:53 PM,25.0,15.1,66,30.15,10.0,South,6.9,-,N/A,,Overcast,190,2013-02-02 04:53:00
11:53 PM,25.0,15.1,66,30.14,10.0,SSW,6.9,-,N/A,,Mostly Cloudy,210,2013-02-02 05:53:00